Time;durP1;ratioP1;P1;durP2;ratioP2;P2;SDS_P1;SDS_P2;PMS_P1;PMS_P2;Temp;Humidity;BMP_temperature;BMP_pressure;BME280_temperature;BME280_humidity;BME280_pressure;Samples;Min_cycle;Max_cycle;Signal;HPM_P1;HPM_P2
2022/11/26 00:01:16;;;;;;;13.10;5.60;;;5.60;99.90;;;;;;5112271;28;20403;-64
2022/11/26 00:03:43;;;;;;;17.25;5.18;;;5.60;99.90;;;;;;5115133;27;20047;-63
2022/11/26 00:06:20;;;;;;;15.27;5.22;;;5.60;99.90;;;;;;5113151;28;20040;-64
2022/11/26 00:08:46;;;;;;;18.70;5.80;;;5.60;99.90;;;;;;5113196;28;20035;-63
2022/11/26 00:11:14;;;;;;;13.23;5.60;;;5.60;99.90;;;;;;5114749;28;20369;-63
2022/11/26 00:13:40;;;;;;;16.48;5.88;;;5.50;99.90;;;;;;5113086;28;20424;-63
2022/11/26 00:16:11;;;;;;;18.92;6.88;;;5.60;99.90;;;;;;5112953;28;20123;-63
2022/11/26 00:18:36;;;;;;;16.85;5.85;;;5.50;99.90;;;;;;5113897;28;20035;-63
2022/11/26 00:21:03;;;;;;;15.73;5.53;;;5.50;99.90;;;;;;5113057;28;20373;-63
2022/11/26 00:23:29;;;;;;;14.18;6.00;;;5.50;99.90;;;;;;5113175;28;20061;-64
2022/11/26 00:25:58;;;;;;;18.05;5.95;;;5.50;99.90;;;;;;5112498;28;20035;-64
2022/11/26 00:28:26;;;;;;;17.50;6.80;;;5.60;99.90;;;;;;5095239;28;20047;-63
2022/11/26 00:30:55;;;;;;;24.20;6.68;;;5.60;99.90;;;;;;5096247;28;20087;-64
2022/11/26 00:33:21;;;;;;;14.77;5.68;;;5.50;99.90;;;;;;5113025;28;20487;-63
2022/11/26 00:35:48;;;;;;;20.35;6.32;;;5.50;99.90;;;;;;5112468;28;20042;-63
2022/11/26 00:38:18;;;;;;;14.27;5.10;;;5.60;99.90;;;;;;5112719;28;20039;-63
2022/11/26 00:40:44;;;;;;;21.27;5.82;;;5.50;99.90;;;;;;5113105;28;20083;-63
2022/11/26 00:43:11;;;;;;;14.93;5.00;;;5.50;99.90;;;;;;5094675;28;20120;-63
2022/11/26 00:45:37;;;;;;;16.15;6.10;;;5.50;99.90;;;;;;5112902;28;20039;-63
2022/11/26 00:48:03;;;;;;;13.15;5.60;;;5.50;99.90;;;;;;5113994;28;20055;-64
2022/11/26 00:50:35;;;;;;;18.10;5.88;;;5.50;99.90;;;;;;5112124;28;20132;-63
2022/11/26 00:53:01;;;;;;;18.45;5.72;;;5.40;99.90;;;;;;5113083;28;20215;-63
2022/11/26 00:55:35;;;;;;;18.00;6.28;;;5.50;99.90;;;;;;5095228;28;20047;-64
2022/11/26 00:58:01;;;;;;;13.07;4.82;;;5.50;99.90;;;;;;5113587;28;20141;-63
2022/11/26 01:00:30;;;;;;;17.02;6.28;;;5.50;99.90;;;;;;5112017;28;20046;-63
2022/11/26 01:02:57;;;;;;;19.63;6.13;;;5.50;99.90;;;;;;5113112;28;20039;-63
2022/11/26 01:05:25;;;;;;;23.67;6.47;;;5.50;99.90;;;;;;5112084;28;20032;-64
2022/11/26 01:07:52;;;;;;;15.45;5.15;;;5.50;99.90;;;;;;5095757;28;20032;-63
2022/11/26 01:10:27;;;;;;;13.05;4.70;;;5.50;99.90;;;;;;5112619;28;20438;-63
2022/11/26 01:12:53;;;;;;;;;;;5.50;99.90;;;;;;5114225;28;20490;-63
2022/11/26 01:15:21;;;;;;;13.77;4.78;;;5.50;99.90;;;;;;5111651;28;19958;-63
2022/11/26 01:17:47;;;;;;;18.65;5.72;;;5.50;99.90;;;;;;5094713;28;20046;-63
2022/11/26 01:20:33;;;;;;;16.70;5.53;;;5.50;99.90;;;;;;5094713;28;20047;-63
2022/11/26 01:22:59;;;;;;;12.70;4.80;;;5.50;99.90;;;;;;5111871;28;20138;-63
2022/11/26 01:25:26;;;;;;;15.13;5.03;;;5.60;99.90;;;;;;5110811;28;20119;-63
2022/11/26 01:27:53;;;;;;;14.85;5.28;;;5.60;99.90;;;;;;5113506;28;20059;-63
2022/11/26 01:30:22;;;;;;;13.80;4.90;;;5.50;99.90;;;;;;5111528;28;20492;-64
2022/11/26 01:32:49;;;;;;;12.10;4.93;;;5.50;99.90;;;;;;5111246;28;20040;-63
2022/11/26 01:35:17;;;;;;;15.85;5.28;;;5.50;99.90;;;;;;5112758;28;20044;-63
2022/11/26 01:37:43;;;;;;;19.95;5.22;;;5.50;99.90;;;;;;5113047;28;20039;-64
2022/11/26 01:40:24;;;;;;;16.33;4.93;;;5.50;99.90;;;;;;5110592;28;20496;-63
2022/11/26 01:42:54;;;;;;;15.68;5.35;;;5.50;99.90;;;;;;5112003;28;20046;-63
2022/11/26 01:45:22;;;;;;;18.02;5.05;;;5.60;99.90;;;;;;5111689;28;20074;-64
2022/11/26 01:47:48;;;;;;;14.18;5.00;;;5.50;99.90;;;;;;5112046;28;20396;-64
2022/11/26 01:50:35;;;;;;;18.55;4.93;;;5.60;99.90;;;;;;5111697;28;20430;-63
2022/11/26 01:53:26;;;;;;;16.02;4.85;;;5.60;99.90;;;;;;5111362;28;20380;-63
2022/11/26 01:55:57;;;;;;;17.42;5.07;;;5.50;99.90;;;;;;5111958;28;20040;-63
2022/11/26 01:58:32;;;;;;;12.07;5.38;;;5.50;99.90;;;;;;5111215;28;20040;-63
2022/11/26 02:00:59;;;;;;;14.55;5.47;;;5.60;99.90;;;;;;5112249;28;20043;-63
2022/11/26 02:03:27;;;;;;;14.68;4.45;;;5.50;99.90;;;;;;5112382;28;20066;-63
2022/11/26 02:06:04;;;;;;;17.85;4.78;;;5.60;99.90;;;;;;5112953;28;20036;-63
2022/11/26 02:08:32;;;;;;;23.02;6.53;;;5.60;99.90;;;;;;5111914;28;20099;-63
2022/11/26 02:10:57;;;;;;;17.75;5.20;;;5.50;99.90;;;;;;5112888;28;20047;-63
2022/11/26 02:13:24;;;;;;;16.27;5.47;;;5.60;99.90;;;;;;5111350;28;20043;-63
2022/11/26 02:16:09;;;;;;;18.75;4.43;;;5.50;99.90;;;;;;5112976;28;20035;-63
2022/11/26 02:18:40;;;;;;;18.40;5.45;;;5.50;99.90;;;;;;5111432;28;20036;-63
2022/11/26 02:21:13;;;;;;;17.02;4.30;;;5.40;99.90;;;;;;5111364;28;20149;-63
2022/11/26 02:23:52;;;;;;;15.02;5.25;;;5.40;99.90;;;;;;5112882;28;20052;-63
2022/11/26 02:27:00;;;;;;;18.92;5.55;;;5.50;99.90;;;;;;5110974;28;20179;-63
2022/11/26 02:29:44;;;;;;;16.50;5.60;;;5.40;99.90;;;;;;5048805;28;20465;-63
2022/11/26 02:32:16;;;;;;;14.50;5.00;;;5.40;99.90;;;;;;5109070;28;20051;-63
2022/11/26 02:34:57;;;;;;;10.30;4.93;;;5.30;99.90;;;;;;5110635;28;20120;-63
2022/11/26 02:37:53;;;;;;;17.88;5.38;;;5.40;99.90;;;;;;5111033;28;20039;-63
2022/11/26 02:40:19;;;;;;;18.52;5.63;;;5.40;99.90;;;;;;5081973;28;20058;-63
2022/11/26 02:42:44;;;;;;;16.13;5.68;;;5.40;99.90;;;;;;5111911;28;20040;-63
2022/11/26 02:45:15;;;;;;;15.90;5.45;;;5.40;99.90;;;;;;5110776;28;20043;-63
2022/11/26 02:47:44;;;;;;;15.70;5.60;;;5.40;99.90;;;;;;5112402;28;20114;-64
2022/11/26 02:50:14;;;;;;;19.50;6.45;;;5.30;99.90;;;;;;5113583;28;20046;-63
2022/11/26 02:52:41;;;;;;;14.77;5.97;;;5.30;99.90;;;;;;5115256;28;20047;-63
2022/11/26 02:55:10;;;;;;;20.15;6.22;;;5.30;99.90;;;;;;5115622;28;20048;-63
2022/11/26 02:57:45;;;;;;;17.73;6.30;;;5.30;99.90;;;;;;5115187;28;20047;-63
2022/11/26 03:00:12;;;;;;;20.25;6.68;;;5.30;99.90;;;;;;5097666;28;20051;-63
2022/11/26 03:03:10;;;;;;;22.77;6.50;;;5.30;99.90;;;;;;5114209;28;20523;-63
2022/11/26 03:05:38;;;;;;;27.55;7.38;;;5.30;99.90;;;;;;5114940;28;20118;-63
2022/11/26 03:08:05;;;;;;;16.10;6.50;;;5.30;99.90;;;;;;5097673;28;20050;-63
2022/11/26 03:10:32;;;;;;;18.38;6.35;;;5.30;99.90;;;;;;5114006;28;20520;-63
2022/11/26 03:12:58;;;;;;;18.90;5.90;;;5.30;99.90;;;;;;5114840;28;20495;-64
2022/11/26 03:15:24;;;;;;;16.17;5.55;;;5.30;99.90;;;;;;5114276;28;20048;-63
2022/11/26 03:17:50;;;;;;;18.75;6.60;;;5.30;99.90;;;;;;5115215;28;20040;-63
2022/11/26 03:20:17;;;;;;;20.90;7.07;;;5.40;99.90;;;;;;5115556;28;20162;-63
2022/11/26 03:22:42;;;;;;;21.10;6.72;;;5.40;99.90;;;;;;5115986;28;20044;-63
2022/11/26 03:25:08;;;;;;;17.45;5.82;;;5.50;99.90;;;;;;5114557;28;20039;-63
2022/11/26 03:27:34;;;;;;;19.73;6.45;;;5.50;99.90;;;;;;5115887;27;20036;-63
2022/11/26 03:30:00;;;;;;;15.65;5.70;;;5.50;99.90;;;;;;5114651;28;20036;-63
2022/11/26 03:32:26;;;;;;;32.08;6.85;;;5.60;99.90;;;;;;5114246;27;20039;-63
2022/11/26 03:34:51;;;;;;;21.55;6.53;;;5.60;99.90;;;;;;5114257;28;20072;-63
2022/11/26 03:37:17;;;;;;;16.85;6.25;;;5.60;99.90;;;;;;5113953;28;20071;-63
2022/11/26 03:39:43;;;;;;;16.48;6.50;;;5.60;99.90;;;;;;5113666;28;20043;-64
2022/11/26 03:42:09;;;;;;;27.55;7.20;;;5.70;99.90;;;;;;5096716;28;20042;-63
2022/11/26 03:44:35;;;;;;;15.85;6.10;;;5.70;99.90;;;;;;5114786;28;20419;-63
2022/11/26 03:47:00;;;;;;;14.43;5.70;;;5.70;99.90;;;;;;5115218;28;20503;-63
2022/11/26 03:49:26;;;;;;;18.30;6.68;;;5.70;99.90;;;;;;5113292;28;20052;-63
2022/11/26 03:51:52;;;;;;;24.60;6.97;;;5.70;99.90;;;;;;5113626;28;20055;-63
2022/11/26 03:54:18;;;;;;;17.77;6.18;;;5.70;99.90;;;;;;5096796;28;20046;-64
2022/11/26 03:56:43;;;;;;;19.88;6.35;;;5.60;99.90;;;;;;5114216;28;20362;-63
2022/11/26 03:59:09;;;;;;;16.42;5.88;;;5.60;99.90;;;;;;5113881;28;20492;-63
2022/11/26 04:01:35;;;;;;;22.35;5.90;;;5.60;99.90;;;;;;5112379;28;20139;-63
2022/11/26 04:04:00;;;;;;;13.43;5.25;;;5.60;99.90;;;;;;5114928;28;20039;-63
2022/11/26 04:06:26;;;;;;;14.57;6.00;;;5.60;99.90;;;;;;5113875;28;20032;-63
2022/11/26 04:08:52;;;;;;;19.90;6.13;;;5.60;99.90;;;;;;5114802;28;20043;-63
2022/11/26 04:11:17;;;;;;;24.67;7.57;;;5.60;99.90;;;;;;5114257;28;20032;-63
2022/11/26 04:13:43;;;;;;;19.13;7.30;;;5.50;99.90;;;;;;5112834;28;20036;-63
2022/11/26 04:16:09;;;;;;;18.50;7.07;;;5.50;99.90;;;;;;5113138;28;20122;-63
2022/11/26 04:18:35;;;;;;;19.38;7.10;;;5.50;99.90;;;;;;5096842;28;20088;-64
2022/11/26 04:21:00;;;;;;;19.40;6.53;;;5.50;99.90;;;;;;5112966;28;20036;-63
2022/11/26 04:23:26;;;;;;;23.45;7.75;;;5.50;99.90;;;;;;5114145;27;20043;-64
2022/11/26 04:25:52;;;;;;;25.30;8.77;;;5.50;99.90;;;;;;5114660;28;20036;-63
2022/11/26 04:28:18;;;;;;;17.35;6.97;;;5.50;99.90;;;;;;5112000;28;20149;-64
2022/11/26 04:30:43;;;;;;;20.10;7.35;;;5.40;99.90;;;;;;5113502;28;20040;-63
2022/11/26 04:33:09;;;;;;;23.15;8.63;;;5.50;99.90;;;;;;5113886;27;20507;-63
2022/11/26 04:35:36;;;;;;;17.73;6.72;;;5.40;99.90;;;;;;5112396;28;20035;-63
2022/11/26 04:38:01;;;;;;;15.65;6.07;;;5.40;99.90;;;;;;5114232;28;20537;-63
2022/11/26 04:40:27;;;;;;;17.55;6.03;;;5.40;99.90;;;;;;5112460;28;20039;-63
2022/11/26 04:42:53;;;;;;;23.95;7.68;;;5.40;99.90;;;;;;5113508;28;20036;-63
2022/11/26 04:45:25;;;;;;;19.55;6.70;;;5.30;99.90;;;;;;5112408;28;20039;-63
2022/11/26 04:47:50;;;;;;;18.98;6.97;;;5.40;99.90;;;;;;5113115;28;20032;-64
2022/11/26 04:50:16;;;;;;;21.20;8.35;;;5.30;99.90;;;;;;5113488;28;20101;-63
2022/11/26 04:52:42;;;;;;;21.65;7.78;;;5.30;99.90;;;;;;5112843;28;20039;-63
2022/11/26 04:55:08;;;;;;;20.98;8.20;;;5.30;99.90;;;;;;5094563;28;20438;-63
2022/11/26 04:57:33;;;;;;;21.02;8.30;;;5.30;99.90;;;;;;5095755;28;20149;-63
2022/11/26 04:59:59;;;;;;;20.80;8.65;;;5.30;99.90;;;;;;5112643;28;20071;-63
2022/11/26 05:02:25;;;;;;;23.88;8.68;;;5.30;99.90;;;;;;5111302;28;20047;-63
2022/11/26 05:04:50;;;;;;;18.55;7.75;;;5.30;99.90;;;;;;5112589;28;20032;-63
2022/11/26 05:07:16;;;;;;;15.70;6.35;;;5.20;99.90;;;;;;5111999;28;20039;-63
2022/11/26 05:09:42;;;;;;;18.95;7.47;;;5.20;99.90;;;;;;5113093;28;20040;-63
2022/11/26 05:12:08;;;;;;;24.92;8.80;;;5.20;99.90;;;;;;5111568;28;20046;-63
2022/11/26 05:14:33;;;;;;;17.85;7.57;;;5.30;99.90;;;;;;5113520;28;20032;-63
2022/11/26 05:16:59;;;;;;;19.20;7.80;;;5.20;99.90;;;;;;5111663;28;20050;-63
2022/11/26 05:19:25;;;;;;;25.90;8.90;;;5.20;99.90;;;;;;5111888;28;20404;-63
2022/11/26 05:21:50;;;;;;;16.30;7.82;;;5.20;99.90;;;;;;5113493;28;20449;-63
2022/11/26 05:24:16;;;;;;;19.00;8.32;;;5.30;99.90;;;;;;5112505;28;20043;-64
2022/11/26 05:26:41;;;;;;;17.23;7.13;;;5.30;99.90;;;;;;5112475;28;20035;-63
2022/11/26 05:29:07;;;;;;;22.38;8.43;;;5.30;99.90;;;;;;5111563;28;20040;-63
2022/11/26 05:31:33;;;;;;;22.92;8.05;;;5.30;99.90;;;;;;5112520;28;20039;-63
2022/11/26 05:33:58;;;;;;;23.15;8.27;;;5.30;99.90;;;;;;5113565;28;20039;-64
2022/11/26 05:36:24;;;;;;;26.95;9.57;;;5.30;99.90;;;;;;5094615;28;20555;-63
2022/11/26 05:38:49;;;;;;;18.15;7.45;;;5.30;99.90;;;;;;5111180;28;20082;-63
2022/11/26 05:41:15;;;;;;;18.48;8.43;;;5.30;99.90;;;;;;5111438;28;20067;-63
2022/11/26 05:43:41;;;;;;;21.65;9.27;;;5.30;99.90;;;;;;5111708;28;20126;-63
2022/11/26 05:46:07;;;;;;;24.73;9.55;;;5.30;99.90;;;;;;5110401;28;20127;-63
2022/11/26 05:48:33;;;;;;;23.90;9.35;;;5.30;99.90;;;;;;5094663;28;20047;-63
2022/11/26 05:51:00;;;;;;;22.50;9.07;;;5.20;99.90;;;;;;5112860;28;20047;-63
2022/11/26 05:53:27;;;;;;;22.05;9.40;;;5.20;99.90;;;;;;5111093;28;20043;-63
2022/11/26 05:55:53;;;;;;;25.60;10.35;;;5.20;99.90;;;;;;5111993;28;20063;-63
2022/11/26 05:58:18;;;;;;;25.00;9.70;;;5.20;99.90;;;;;;5111523;28;20036;-63
2022/11/26 06:00:44;;;;;;;18.25;8.93;;;5.20;99.90;;;;;;5111866;28;20115;-63
2022/11/26 06:03:10;;;;;;;20.75;8.50;;;5.20;99.90;;;;;;5112213;28;20039;-63
2022/11/26 06:05:41;;;;;;;17.60;8.20;;;5.10;99.90;;;;;;5110948;28;20404;-64
2022/11/26 06:08:06;;;;;;;20.77;9.75;;;5.10;99.90;;;;;;5111212;28;20035;-63
2022/11/26 06:10:32;;;;;;;21.20;9.13;;;5.10;99.90;;;;;;5111586;28;20101;-63
2022/11/26 06:12:58;;;;;;;24.90;8.98;;;5.10;99.90;;;;;;5110474;28;20036;-63
2022/11/26 06:15:24;;;;;;;23.33;9.40;;;5.10;99.90;;;;;;5110894;28;20088;-63
2022/11/26 06:17:49;;;;;;;20.73;9.43;;;5.00;99.90;;;;;;5111335;28;20118;-63
2022/11/26 06:20:15;;;;;;;19.70;9.60;;;5.00;99.90;;;;;;5110221;28;20047;-63
2022/11/26 06:22:42;;;;;;;29.90;11.13;;;5.00;99.90;;;;;;5111586;28;20039;-63
2022/11/26 06:25:11;;;;;;;20.52;9.75;;;5.00;99.90;;;;;;5114912;28;20384;-63
2022/11/26 06:27:37;;;;;;;22.25;9.38;;;5.00;99.90;;;;;;5116026;28;20067;-63
2022/11/26 06:30:05;;;;;;;16.13;9.07;;;5.00;99.90;;;;;;5115810;28;20399;-63
2022/11/26 06:32:31;;;;;;;27.13;11.20;;;5.00;99.90;;;;;;5115633;28;20148;-63
2022/11/26 06:34:56;;;;;;;21.25;9.68;;;5.00;99.90;;;;;;5116101;28;20060;-63
2022/11/26 06:37:23;;;;;;;20.17;8.90;;;4.90;99.90;;;;;;5114912;28;20085;-63
2022/11/26 06:39:49;;;;;;;23.63;9.50;;;4.90;99.90;;;;;;5098414;28;20565;-63
2022/11/26 06:42:14;;;;;;;19.05;8.52;;;4.90;99.90;;;;;;5114176;28;20071;-64
2022/11/26 06:44:40;;;;;;;19.67;10.38;;;4.90;99.90;;;;;;5115504;28;20499;-63
2022/11/26 06:47:10;;;;;;;18.77;8.68;;;4.90;99.90;;;;;;5114400;28;20040;-63
2022/11/26 06:49:36;;;;;;;26.65;10.07;;;4.90;99.90;;;;;;5114125;28;20173;-64
2022/11/26 06:52:02;;;;;;;20.48;8.82;;;4.80;99.90;;;;;;5098154;28;20469;-64
2022/11/26 06:54:27;;;;;;;24.73;9.98;;;4.80;99.90;;;;;;5114845;28;20113;-63
2022/11/26 06:56:53;;;;;;;18.83;7.95;;;4.90;99.90;;;;;;5114963;28;20509;-63
2022/11/26 06:59:20;;;;;;;26.65;11.18;;;4.80;99.90;;;;;;5115722;28;20036;-63
2022/11/26 07:01:46;;;;;;;21.58;9.00;;;4.80;99.90;;;;;;5114223;28;20042;-63
2022/11/26 07:04:12;;;;;;;31.08;11.95;;;4.80;99.90;;;;;;5114529;28;20027;-64
2022/11/26 07:06:38;;;;;;;28.17;10.68;;;4.80;99.90;;;;;;5116157;28;20114;-63
2022/11/26 07:09:07;;;;;;;21.35;8.68;;;4.70;99.90;;;;;;5114636;28;20078;-63
2022/11/26 07:11:33;;;;;;;21.75;9.73;;;4.80;99.90;;;;;;5114733;28;20075;-63
2022/11/26 07:14:00;;;;;;;17.60;8.15;;;4.70;99.90;;;;;;5114953;28;20496;-63
2022/11/26 07:16:27;;;;;;;24.25;9.50;;;4.70;99.90;;;;;;5114626;27;20043;-63
2022/11/26 07:18:55;;;;;;;23.70;10.23;;;4.70;99.90;;;;;;5114801;28;20051;-63
2022/11/26 07:21:21;;;;;;;22.13;10.13;;;4.80;99.90;;;;;;5114134;28;20088;-64
2022/11/26 07:23:49;;;;;;;23.60;11.52;;;4.70;99.90;;;;;;5113558;28;20043;-63
2022/11/26 07:26:15;;;;;;;26.40;11.82;;;4.80;99.90;;;;;;5115193;28;20085;-63
2022/11/26 07:28:41;;;;;;;26.70;9.27;;;4.70;99.90;;;;;;5114425;28;20043;-63
2022/11/26 07:31:13;;;;;;;18.80;9.35;;;4.70;99.90;;;;;;5113055;28;20042;-64
2022/11/26 07:33:39;;;;;;;18.45;8.80;;;4.70;99.90;;;;;;5115855;28;20081;-64
2022/11/26 07:36:08;;;;;;;24.52;10.18;;;4.80;99.90;;;;;;5114823;27;20527;-63
2022/11/26 07:38:34;;;;;;;24.60;11.23;;;4.80;99.90;;;;;;5113500;28;20073;-64
2022/11/26 07:41:05;;;;;;;24.60;10.73;;;4.80;99.90;;;;;;5114303;28;20373;-63
2022/11/26 07:43:33;;;;;;;24.48;11.30;;;4.80;99.90;;;;;;5115517;28;20040;-64
2022/11/26 07:46:04;;;;;;;21.88;10.27;;;4.80;99.90;;;;;;5113459;28;20040;-63
2022/11/26 07:48:32;;;;;;;22.15;11.55;;;4.80;99.90;;;;;;5114080;28;20510;-63
2022/11/26 07:50:58;;;;;;;24.83;10.93;;;4.90;99.90;;;;;;5113456;28;20501;-63
2022/11/26 07:53:26;;;;;;;26.48;11.30;;;4.80;99.90;;;;;;5114780;28;20046;-63
2022/11/26 07:55:52;;;;;;;25.90;13.32;;;4.90;99.90;;;;;;5113692;28;20039;-63
2022/11/26 07:58:18;;;;;;;25.23;13.18;;;4.90;99.90;;;;;;5113831;28;20039;-63
2022/11/26 08:00:44;;;;;;;22.63;12.23;;;4.90;99.90;;;;;;5114863;28;20112;-63
2022/11/26 08:03:09;;;;;;;26.50;12.00;;;5.00;99.90;;;;;;5112976;28;20044;-63
2022/11/26 08:05:42;;;;;;;29.25;13.23;;;5.00;99.90;;;;;;5113126;28;20080;-63
2022/11/26 08:08:09;;;;;;;21.70;11.57;;;5.00;99.90;;;;;;5113099;27;20036;-64
2022/11/26 08:10:35;;;;;;;21.20;10.55;;;5.00;99.90;;;;;;5122145;27;20069;-63
2022/11/26 08:13:00;;;;;;;23.63;10.57;;;5.00;99.90;;;;;;5111962;28;20039;-63
2022/11/26 08:15:26;;;;;;;26.63;9.73;;;5.10;99.90;;;;;;5112504;28;20043;-63
2022/11/26 08:17:56;;;;;;;26.48;10.77;;;5.10;99.90;;;;;;5114391;28;20035;-63
2022/11/26 08:20:22;;;;;;;23.92;10.88;;;5.20;99.90;;;;;;5111113;28;20040;-63
2022/11/26 08:22:48;;;;;;;22.00;10.10;;;5.20;99.90;;;;;;5113031;28;20048;-63
2022/11/26 08:25:13;;;;;;;20.42;10.68;;;5.20;99.90;;;;;;5113012;28;20036;-63
2022/11/26 08:27:39;;;;;;;26.58;10.93;;;5.30;99.90;;;;;;5112381;28;20075;-63
2022/11/26 08:30:06;;;;;;;25.83;10.50;;;5.30;99.90;;;;;;5108064;28;20032;-63
2022/11/26 08:32:32;;;;;;;21.55;12.43;;;5.40;99.90;;;;;;5105442;28;20052;-63
2022/11/26 08:34:58;;;;;;;24.33;11.35;;;5.40;99.90;;;;;;5092631;28;20122;-63
2022/11/26 08:37:24;;;;;;;24.70;11.40;;;5.50;99.90;;;;;;5110136;28;20196;-64
2022/11/26 08:39:50;;;;;;;27.23;10.80;;;5.50;99.90;;;;;;5111646;28;20039;-63
2022/11/26 08:42:15;;;;;;;23.98;10.95;;;5.60;99.90;;;;;;5092240;28;20047;-63
2022/11/26 08:44:41;;;;;;;23.80;10.57;;;5.60;99.90;;;;;;5110392;28;20039;-63
2022/11/26 08:47:07;;;;;;;23.55;10.98;;;5.70;99.90;;;;;;5107428;28;20488;-63
2022/11/26 08:49:33;;;;;;;26.95;12.45;;;5.70;99.90;;;;;;5110131;28;20090;-63
2022/11/26 08:51:58;;;;;;;25.05;11.68;;;5.80;99.90;;;;;;5107563;28;20081;-63
2022/11/26 08:54:24;;;;;;;26.17;11.15;;;5.90;99.90;;;;;;5108265;28;20035;-64
2022/11/26 08:56:50;;;;;;;22.92;11.40;;;6.00;99.90;;;;;;5105191;28;20032;-64
2022/11/26 08:59:18;;;;;;;22.30;11.07;;;6.00;99.90;;;;;;5110535;28;20172;-64
2022/11/26 09:01:44;;;;;;;18.52;11.02;;;6.10;99.90;;;;;;5108401;28;20039;-63
2022/11/26 09:04:10;;;;;;;24.58;11.48;;;6.10;99.90;;;;;;5107649;28;20392;-63
2022/11/26 09:06:36;;;;;;;24.45;10.30;;;6.20;99.90;;;;;;5109365;28;20081;-64
2022/11/26 09:09:12;;;;;;;25.85;11.07;;;6.20;99.90;;;;;;5101715;28;20451;-63
2022/11/26 09:11:52;;;;;;;26.63;12.38;;;6.20;99.90;;;;;;5089123;28;20503;-64
2022/11/26 09:14:21;;;;;;;20.27;11.68;;;6.30;99.90;;;;;;5110372;28;20067;-64
2022/11/26 09:16:47;;;;;;;23.75;11.25;;;6.30;99.90;;;;;;5108843;28;20569;-64
2022/11/26 09:19:13;;;;;;;26.02;13.18;;;6.40;99.90;;;;;;5108493;28;20043;-64
2022/11/26 09:21:39;;;;;;;25.42;11.27;;;6.40;99.90;;;;;;5109217;28;20039;-64
2022/11/26 09:24:05;;;;;;;20.08;10.27;;;6.40;99.90;;;;;;5091293;28;20055;-64
2022/11/26 09:26:31;;;;;;;19.77;9.90;;;6.50;99.90;;;;;;5092357;28;20282;-64
2022/11/26 09:28:57;;;;;;;20.90;10.43;;;6.50;99.90;;;;;;5108480;28;20036;-64
2022/11/26 09:31:24;;;;;;;21.00;10.55;;;6.60;99.90;;;;;;5107434;28;20368;-63
2022/11/26 09:56:55;;;;;;;25.15;12.02;;;6.90;99.90;;;;;;5075817;28;20054;-64
2022/11/26 10:14:03;;;;;;;28.45;12.52;;;7.10;99.90;;;;;;5108391;28;20088;-64
2022/11/26 10:16:54;;;;;;;28.35;11.38;;;7.20;99.90;;;;;;5108939;28;20073;-64
2022/11/26 10:19:36;;;;;;;22.27;11.95;;;7.30;99.90;;;;;;5108672;28;20032;-63
2022/11/26 10:22:38;;;;;;;25.38;12.88;;;7.30;99.90;;;;;;5110347;28;20043;-64
2022/11/26 10:25:14;;;;;;;24.27;12.55;;;7.40;99.90;;;;;;5087108;28;20500;-64
2022/11/26 10:27:41;;;;;;;25.95;12.93;;;7.40;99.90;;;;;;5108460;28;20043;-64
2022/11/26 10:30:23;;;;;;;20.75;11.15;;;7.40;99.90;;;;;;5108708;28;20071;-64
2022/11/26 10:32:51;;;;;;;24.15;11.77;;;7.50;99.90;;;;;;5108849;28;20057;-64
2022/11/26 10:35:26;;;;;;;27.83;11.68;;;7.50;99.90;;;;;;5109782;28;20039;-64
2022/11/26 10:37:54;;;;;;;28.30;13.48;;;7.60;99.90;;;;;;5108989;28;20535;-64
2022/11/26 10:40:28;;;;;;;25.35;12.90;;;7.50;99.90;;;;;;5107029;28;20054;-64
2022/11/26 10:43:09;;;;;;;25.52;12.43;;;7.50;99.90;;;;;;5108089;28;20036;-64
2022/11/26 10:45:45;;;;;;;24.38;11.95;;;7.60;99.90;;;;;;5108240;28;20119;-64
2022/11/26 10:48:15;;;;;;;29.00;12.30;;;7.60;99.90;;;;;;5107338;28;20040;-64
2022/11/26 10:50:42;;;;;;;19.45;10.90;;;7.60;99.90;;;;;;5091786;28;20303;-64
2022/11/26 10:53:20;;;;;;;23.80;12.20;;;7.70;99.90;;;;;;5090283;28;20035;-64
2022/11/26 10:55:46;;;;;;;18.70;11.27;;;7.70;99.90;;;;;;5108682;28;20036;-64
2022/11/26 10:58:38;;;;;;;20.92;12.45;;;7.80;99.90;;;;;;5107334;28;20070;-64
2022/11/26 11:01:05;;;;;;;25.85;12.60;;;7.80;99.90;;;;;;5106103;28;20043;-64
2022/11/26 11:03:38;;;;;;;26.65;11.98;;;7.80;99.90;;;;;;5109914;28;20369;-64
2022/11/26 11:06:19;;;;;;;30.10;11.43;;;7.80;99.90;;;;;;5106956;28;20048;-64
2022/11/26 11:08:46;;;;;;;30.38;12.38;;;7.90;99.90;;;;;;5106904;28;20121;-64
2022/11/26 11:11:28;;;;;;;23.60;11.98;;;7.90;99.90;;;;;;5109765;28;20079;-64
2022/11/26 11:13:54;;;;;;;24.02;12.57;;;8.00;99.90;;;;;;5094283;28;20046;-63
2022/11/26 11:16:31;;;;;;;24.50;12.25;;;8.00;99.90;;;;;;5111094;28;20062;-64
2022/11/26 11:19:00;;;;;;;24.48;11.73;;;8.10;99.90;;;;;;5103063;28;20071;-64
2022/11/26 11:21:33;;;;;;;20.92;10.93;;;8.10;99.90;;;;;;5111077;28;20043;-64
2022/11/26 11:24:17;;;;;;;28.45;11.55;;;8.10;99.90;;;;;;5110193;28;20124;-64
2022/11/26 11:26:53;;;;;;;25.23;12.25;;;8.20;99.90;;;;;;5094141;28;20027;-64
2022/11/26 11:29:28;;;;;;;31.23;11.45;;;8.30;99.90;;;;;;5097452;28;20036;-64
2022/11/26 11:31:56;;;;;;;32.63;11.65;;;8.30;99.90;;;;;;5093382;28;20063;-65
2022/11/26 11:34:33;;;;;;;24.70;12.43;;;8.40;99.90;;;;;;5104182;28;20039;-65
2022/11/26 11:37:12;;;;;;;24.10;10.60;;;8.40;99.90;;;;;;5112271;28;20039;-65
2022/11/26 11:39:38;;;;;;;21.83;11.02;;;8.50;99.90;;;;;;5112254;28;20399;-64
2022/11/26 11:42:16;;;;;;;27.10;11.18;;;8.50;99.90;;;;;;5110598;28;20044;-63
2022/11/26 11:44:50;;;;;;;27.88;10.45;;;8.60;99.90;;;;;;5105136;28;20139;-62
2022/11/26 11:47:36;;;;;;;30.88;10.65;;;8.60;99.90;;;;;;5110233;28;20082;-64
2022/11/26 11:50:15;;;;;;;22.83;11.15;;;8.60;99.90;;;;;;5112321;28;20097;-63
2022/11/26 11:52:50;;;;;;;21.95;10.65;;;8.60;99.90;;;;;;5092657;28;20055;-63
2022/11/26 11:55:31;;;;;;;28.85;11.95;;;8.60;99.90;;;;;;5109467;28;20042;-64
2022/11/26 11:58:15;;;;;;;21.25;11.57;;;8.70;99.90;;;;;;5109834;28;20058;-64
2022/11/26 12:01:12;;;;;;;22.67;11.38;;;8.70;99.90;;;;;;5106690;28;20491;-64
2022/11/26 12:03:54;;;;;;;30.73;12.35;;;8.70;99.90;;;;;;5111276;28;20383;-64
2022/11/26 12:06:32;;;;;;;22.17;10.95;;;8.70;99.90;;;;;;5108059;28;20036;-64
2022/11/26 12:09:23;;;;;;;24.75;11.32;;;8.80;99.90;;;;;;5095613;28;20107;-64
2022/11/26 12:12:02;;;;;;;21.40;10.43;;;8.70;99.90;;;;;;5107030;28;20468;-64
2022/11/26 12:14:37;;;;;;;22.13;10.55;;;8.70;99.90;;;;;;5110546;28;20449;-64
2022/11/26 12:17:18;;;;;;;20.48;10.77;;;8.70;99.90;;;;;;5093647;28;20121;-64
2022/11/26 12:19:56;;;;;;;24.50;10.52;;;8.70;99.90;;;;;;5109826;28;20127;-64
2022/11/26 12:22:41;;;;;;;22.23;10.55;;;8.80;99.90;;;;;;5095222;28;20401;-64
2022/11/26 12:25:24;;;;;;;26.95;11.80;;;8.80;99.90;;;;;;5109543;28;20100;-64
2022/11/26 12:27:56;;;;;;;21.20;11.13;;;8.90;99.90;;;;;;5110002;28;20132;-64
2022/11/26 12:30:28;;;;;;;25.83;11.02;;;8.90;99.90;;;;;;5092262;28;20050;-64
2022/11/26 12:33:25;;;;;;;21.73;11.07;;;9.00;99.90;;;;;;5109986;28;20131;-64
2022/11/26 12:35:55;;;;;;;25.95;10.90;;;9.00;99.90;;;;;;5110883;28;20536;-64
2022/11/26 12:38:28;;;;;;;26.58;11.63;;;9.10;99.90;;;;;;5110231;28;20055;-64
2022/11/26 12:40:59;;;;;;;20.77;10.27;;;9.10;99.90;;;;;;5111489;28;20040;-64
2022/11/26 12:43:36;;;;;;;22.20;10.70;;;9.10;99.90;;;;;;5110113;28;20039;-64
2022/11/26 12:46:09;;;;;;;18.88;9.48;;;9.10;99.90;;;;;;5110565;28;20048;-64
2022/11/26 12:49:01;;;;;;;25.23;10.05;;;9.10;99.90;;;;;;5110572;28;20097;-63
2022/11/26 12:51:48;;;;;;;20.17;10.40;;;9.10;99.90;;;;;;5109979;28;20047;-63
2022/11/26 12:54:17;;;;;;;20.25;10.85;;;9.10;99.90;;;;;;5110504;28;20408;-63
2022/11/26 12:56:48;;;;;;;23.42;10.50;;;9.10;99.90;;;;;;5111577;28;20043;-63
2022/11/26 12:59:37;;;;;;;24.08;10.40;;;9.10;99.90;;;;;;5109677;28;20052;-63
2022/11/26 13:02:21;;;;;;;24.70;10.40;;;9.00;99.90;;;;;;5111054;28;20035;-64
2022/11/26 13:04:47;;;;;;;21.33;9.70;;;9.00;99.90;;;;;;5110535;28;20417;-64
2022/11/26 13:07:13;;;;;;;22.58;9.30;;;9.00;99.90;;;;;;5108454;28;20096;-64
2022/11/26 13:09:53;;;;;;;34.45;11.05;;;9.00;99.90;;;;;;5108723;28;20028;-64
2022/11/26 13:12:19;;;;;;;20.75;11.00;;;9.00;99.90;;;;;;5092261;28;20043;-63
2022/11/26 13:15:14;;;;;;;20.75;10.98;;;9.00;99.90;;;;;;5109296;28;20085;-63
2022/11/26 13:17:42;;;;;;;20.63;10.13;;;9.00;99.90;;;;;;5108985;28;20052;-65
2022/11/26 13:20:29;;;;;;;21.20;10.55;;;9.00;99.90;;;;;;5109366;28;20043;-65
2022/11/26 13:23:12;;;;;;;26.70;11.23;;;9.00;99.90;;;;;;5109267;28;20121;-62
2022/11/26 13:25:41;;;;;;;26.60;11.75;;;9.00;99.90;;;;;;5111112;28;20039;-62
2022/11/26 13:28:27;;;;;;;26.85;10.95;;;9.00;99.90;;;;;;5110323;28;20040;-63
2022/11/26 13:31:41;;;;;;;24.58;11.85;;;9.00;99.90;;;;;;5096192;28;20043;-62
2022/11/26 13:34:25;;;;;;;24.45;11.55;;;9.00;99.90;;;;;;5110492;28;20039;-64
2022/11/26 13:37:05;;;;;;;30.17;12.60;;;9.10;99.90;;;;;;5108307;28;20048;-64